sensor_id;sensor_type;location;lat;lon;timestamp;temperature;humidity
11089;DHT22;5598;48.648;8.908;2023-04-01T00:01:41;6.80;99.90
11089;DHT22;5598;48.648;8.908;2023-04-01T00:04:08;6.80;99.90
11089;DHT22;5598;48.648;8.908;2023-04-01T00:06:35;6.80;99.90
11089;DHT22;5598;48.648;8.908;2023-04-01T00:09:02;6.70;99.90
11089;DHT22;5598;48.648;8.908;2023-04-01T00:11:29;6.70;99.90
11089;DHT22;5598;48.648;8.908;2023-04-01T00:13:57;6.80;99.90
11089;DHT22;5598;48.648;8.908;2023-04-01T00:16:24;6.70;99.90
11089;DHT22;5598;48.648;8.908;2023-04-01T00:18:51;6.80;99.90
11089;DHT22;5598;48.648;8.908;2023-04-01T00:21:19;6.80;99.90
11089;DHT22;5598;48.648;8.908;2023-04-01T00:23:47;6.80;99.90
11089;DHT22;5598;48.648;8.908;2023-04-01T00:26:14;6.80;99.90
11089;DHT22;5598;48.648;8.908;2023-04-01T00:28:44;6.80;99.90
11089;DHT22;5598;48.648;8.908;2023-04-01T00:31:13;6.90;99.90
11089;DHT22;5598;48.648;8.908;2023-04-01T00:33:40;6.80;99.90
11089;DHT22;5598;48.648;8.908;2023-04-01T00:36:09;6.80;99.90
11089;DHT22;5598;48.648;8.908;2023-04-01T00:38:37;6.80;99.90
11089;DHT22;5598;48.648;8.908;2023-04-01T00:41:05;6.80;99.90
11089;DHT22;5598;48.648;8.908;2023-04-01T00:43:32;6.70;99.90
11089;DHT22;5598;48.648;8.908;2023-04-01T00:45:59;6.70;99.90
11089;DHT22;5598;48.648;8.908;2023-04-01T00:48:30;6.70;99.90
11089;DHT22;5598;48.648;8.908;2023-04-01T00:51:01;6.70;99.90
11089;DHT22;5598;48.648;8.908;2023-04-01T00:53:30;6.70;99.90
11089;DHT22;5598;48.648;8.908;2023-04-01T00:56:01;6.70;99.90
11089;DHT22;5598;48.648;8.908;2023-04-01T00:58:32;6.60;99.90
11089;DHT22;5598;48.648;8.908;2023-04-01T01:01:01;6.60;99.90
11089;DHT22;5598;48.648;8.908;2023-04-01T01:03:29;6.60;99.90
11089;DHT22;5598;48.648;8.908;2023-04-01T01:06:08;6.60;99.90
11089;DHT22;5598;48.648;8.908;2023-04-01T01:08:47;6.60;99.90
11089;DHT22;5598;48.648;8.908;2023-04-01T01:11:22;6.70;99.90
11089;DHT22;5598;48.648;8.908;2023-04-01T01:13:53;6.60;99.90
11089;DHT22;5598;48.648;8.908;2023-04-01T01:16:26;6.60;99.90
11089;DHT22;5598;48.648;8.908;2023-04-01T01:19:00;6.60;99.90
11089;DHT22;5598;48.648;8.908;2023-04-01T01:25:00;6.60;99.90
11089;DHT22;5598;48.648;8.908;2023-04-01T01:27:34;6.60;99.90
11089;DHT22;5598;48.648;8.908;2023-04-01T01:30:24;6.60;99.90
11089;DHT22;5598;48.648;8.908;2023-04-01T01:33:24;6.70;99.90
11089;DHT22;5598;48.648;8.908;2023-04-01T01:35:59;6.70;99.90
11089;DHT22;5598;48.648;8.908;2023-04-01T01:38:31;6.70;99.90
11089;DHT22;5598;48.648;8.908;2023-04-01T01:41:01;6.60;99.90
11089;DHT22;5598;48.648;8.908;2023-04-01T01:43:31;6.60;99.90
11089;DHT22;5598;48.648;8.908;2023-04-01T01:46:00;6.60;99.90
11089;DHT22;5598;48.648;8.908;2023-04-01T01:48:29;6.60;99.90
11089;DHT22;5598;48.648;8.908;2023-04-01T01:50:59;6.50;99.90
11089;DHT22;5598;48.648;8.908;2023-04-01T01:53:27;6.60;99.90
11089;DHT22;5598;48.648;8.908;2023-04-01T01:55:53;6.50;99.90
11089;DHT22;5598;48.648;8.908;2023-04-01T01:58:23;6.50;99.90
11089;DHT22;5598;48.648;8.908;2023-04-01T02:00:54;6.50;99.90
11089;DHT22;5598;48.648;8.908;2023-04-01T02:03:23;6.50;99.90
11089;DHT22;5598;48.648;8.908;2023-04-01T02:05:55;6.50;99.90
11089;DHT22;5598;48.648;8.908;2023-04-01T02:08:26;6.50;99.90
11089;DHT22;5598;48.648;8.908;2023-04-01T02:10:59;6.50;99.90
11089;DHT22;5598;48.648;8.908;2023-04-01T02:13:31;6.50;99.90
11089;DHT22;5598;48.648;8.908;2023-04-01T02:16:05;6.50;99.90
11089;DHT22;5598;48.648;8.908;2023-04-01T02:18:35;6.50;99.90
11089;DHT22;5598;48.648;8.908;2023-04-01T02:21:07;6.40;99.90
11089;DHT22;5598;48.648;8.908;2023-04-01T02:23:38;6.50;99.90
11089;DHT22;5598;48.648;8.908;2023-04-01T02:26:07;6.40;99.90
11089;DHT22;5598;48.648;8.908;2023-04-01T02:28:35;6.40;99.90
11089;DHT22;5598;48.648;8.908;2023-04-01T02:31:03;6.40;99.90
11089;DHT22;5598;48.648;8.908;2023-04-01T02:33:31;6.40;99.90
11089;DHT22;5598;48.648;8.908;2023-04-01T02:35:58;6.40;99.90
11089;DHT22;5598;48.648;8.908;2023-04-01T02:38:25;6.40;99.90
11089;DHT22;5598;48.648;8.908;2023-04-01T02:40:59;6.30;99.90
11089;DHT22;5598;48.648;8.908;2023-04-01T02:43:27;6.30;99.90
11089;DHT22;5598;48.648;8.908;2023-04-01T02:45:54;6.20;99.90
11089;DHT22;5598;48.648;8.908;2023-04-01T02:48:21;6.20;99.90
11089;DHT22;5598;48.648;8.908;2023-04-01T02:50:47;6.20;99.90
11089;DHT22;5598;48.648;8.908;2023-04-01T02:53:15;6.20;99.90
11089;DHT22;5598;48.648;8.908;2023-04-01T02:55:42;6.20;99.90
11089;DHT22;5598;48.648;8.908;2023-04-01T02:58:11;6.10;99.90
11089;DHT22;5598;48.648;8.908;2023-04-01T03:00:38;6.10;99.90
11089;DHT22;5598;48.648;8.908;2023-04-01T03:03:05;6.10;99.90
11089;DHT22;5598;48.648;8.908;2023-04-01T03:05:32;6.10;99.90
11089;DHT22;5598;48.648;8.908;2023-04-01T03:07:59;6.10;99.90
11089;DHT22;5598;48.648;8.908;2023-04-01T03:10:26;6.10;99.90
11089;DHT22;5598;48.648;8.908;2023-04-01T03:12:52;6.10;99.90
11089;DHT22;5598;48.648;8.908;2023-04-01T03:15:21;6.10;99.90
11089;DHT22;5598;48.648;8.908;2023-04-01T03:17:47;6.10;99.90
11089;DHT22;5598;48.648;8.908;2023-04-01T03:20:14;6.10;99.90
11089;DHT22;5598;48.648;8.908;2023-04-01T03:22:41;6.20;99.90
11089;DHT22;5598;48.648;8.908;2023-04-01T03:25:09;6.20;99.90
11089;DHT22;5598;48.648;8.908;2023-04-01T03:27:36;6.20;99.90
11089;DHT22;5598;48.648;8.908;2023-04-01T03:30:04;6.10;99.90
11089;DHT22;5598;48.648;8.908;2023-04-01T03:32:33;6.10;99.90
11089;DHT22;5598;48.648;8.908;2023-04-01T03:34:59;6.10;99.90
11089;DHT22;5598;48.648;8.908;2023-04-01T03:37:26;6.10;99.90
11089;DHT22;5598;48.648;8.908;2023-04-01T03:39:53;6.00;99.90
11089;DHT22;5598;48.648;8.908;2023-04-01T03:42:20;6.10;99.90
11089;DHT22;5598;48.648;8.908;2023-04-01T03:44:47;6.10;99.90
11089;DHT22;5598;48.648;8.908;2023-04-01T03:47:14;6.10;99.90
11089;DHT22;5598;48.648;8.908;2023-04-01T03:49:42;6.10;99.90
11089;DHT22;5598;48.648;8.908;2023-04-01T03:52:10;6.10;99.90
11089;DHT22;5598;48.648;8.908;2023-04-01T03:54:37;6.00;99.90
11089;DHT22;5598;48.648;8.908;2023-04-01T03:57:04;6.00;99.90
11089;DHT22;5598;48.648;8.908;2023-04-01T03:59:31;6.00;99.90
11089;DHT22;5598;48.648;8.908;2023-04-01T04:01:57;5.90;99.90
11089;DHT22;5598;48.648;8.908;2023-04-01T04:04:24;5.90;99.90
11089;DHT22;5598;48.648;8.908;2023-04-01T04:06:53;5.90;99.90
11089;DHT22;5598;48.648;8.908;2023-04-01T04:09:20;5.80;99.90
11089;DHT22;5598;48.648;8.908;2023-04-01T04:11:47;5.80;99.90
11089;DHT22;5598;48.648;8.908;2023-04-01T04:14:13;5.70;99.90
11089;DHT22;5598;48.648;8.908;2023-04-01T04:16:40;5.60;99.90
11089;DHT22;5598;48.648;8.908;2023-04-01T04:19:07;5.60;99.90
11089;DHT22;5598;48.648;8.908;2023-04-01T04:21:34;5.60;99.90
11089;DHT22;5598;48.648;8.908;2023-04-01T04:24:03;5.50;99.90
11089;DHT22;5598;48.648;8.908;2023-04-01T04:26:30;5.50;99.90
11089;DHT22;5598;48.648;8.908;2023-04-01T04:28:57;5.50;99.90
11089;DHT22;5598;48.648;8.908;2023-04-01T04:31:25;5.50;99.90
11089;DHT22;5598;48.648;8.908;2023-04-01T04:33:52;5.60;99.90
11089;DHT22;5598;48.648;8.908;2023-04-01T04:36:20;5.60;99.90
11089;DHT22;5598;48.648;8.908;2023-04-01T04:38:47;5.60;99.90
11089;DHT22;5598;48.648;8.908;2023-04-01T04:41:16;5.70;99.90
11089;DHT22;5598;48.648;8.908;2023-04-01T04:43:49;5.70;99.90
11089;DHT22;5598;48.648;8.908;2023-04-01T04:46:16;5.70;99.90
11089;DHT22;5598;48.648;8.908;2023-04-01T04:48:43;5.70;99.90
11089;DHT22;5598;48.648;8.908;2023-04-01T04:51:13;5.70;99.90
11089;DHT22;5598;48.648;8.908;2023-04-01T04:53:40;5.80;99.90
11089;DHT22;5598;48.648;8.908;2023-04-01T04:56:07;5.80;99.90
11089;DHT22;5598;48.648;8.908;2023-04-01T04:58:35;5.90;99.90
11089;DHT22;5598;48.648;8.908;2023-04-01T05:01:06;5.90;99.90
11089;DHT22;5598;48.648;8.908;2023-04-01T05:03:33;6.00;99.90
11089;DHT22;5598;48.648;8.908;2023-04-01T05:05:59;6.00;99.90
11089;DHT22;5598;48.648;8.908;2023-04-01T05:08:26;6.00;99.90
11089;DHT22;5598;48.648;8.908;2023-04-01T05:10:53;6.00;99.90
11089;DHT22;5598;48.648;8.908;2023-04-01T05:13:20;6.10;99.90
11089;DHT22;5598;48.648;8.908;2023-04-01T05:15:48;6.10;99.90
11089;DHT22;5598;48.648;8.908;2023-04-01T05:18:15;6.10;99.90
11089;DHT22;5598;48.648;8.908;2023-04-01T05:20:46;6.20;99.90
11089;DHT22;5598;48.648;8.908;2023-04-01T05:23:13;6.20;99.90
11089;DHT22;5598;48.648;8.908;2023-04-01T05:25:40;6.20;99.90
11089;DHT22;5598;48.648;8.908;2023-04-01T05:28:07;6.20;99.90
11089;DHT22;5598;48.648;8.908;2023-04-01T05:30:33;6.30;99.90
11089;DHT22;5598;48.648;8.908;2023-04-01T05:33:02;6.20;99.90
11089;DHT22;5598;48.648;8.908;2023-04-01T05:35:29;6.30;99.90
11089;DHT22;5598;48.648;8.908;2023-04-01T05:37:55;6.30;99.90
11089;DHT22;5598;48.648;8.908;2023-04-01T05:40:22;6.30;99.90
11089;DHT22;5598;48.648;8.908;2023-04-01T05:42:49;6.30;99.90
11089;DHT22;5598;48.648;8.908;2023-04-01T05:45:16;6.20;99.90
11089;DHT22;5598;48.648;8.908;2023-04-01T05:47:43;6.30;99.90
11089;DHT22;5598;48.648;8.908;2023-04-01T05:50:11;6.30;99.90
11089;DHT22;5598;48.648;8.908;2023-04-01T05:52:38;6.40;99.90
11089;DHT22;5598;48.648;8.908;2023-04-01T05:55:05;6.40;99.90
11089;DHT22;5598;48.648;8.908;2023-04-01T05:57:32;6.40;99.90
11089;DHT22;5598;48.648;8.908;2023-04-01T05:59:59;6.50;99.90
11089;DHT22;5598;48.648;8.908;2023-04-01T06:02:26;6.50;99.90
11089;DHT22;5598;48.648;8.908;2023-04-01T06:05:03;6.50;99.90
11089;DHT22;5598;48.648;8.908;2023-04-01T06:07:31;6.60;99.90
11089;DHT22;5598;48.648;8.908;2023-04-01T06:09:58;6.60;99.90
11089;DHT22;5598;48.648;8.908;2023-04-01T06:12:52;6.60;99.90
11089;DHT22;5598;48.648;8.908;2023-04-01T06:15:25;6.70;99.90
11089;DHT22;5598;48.648;8.908;2023-04-01T06:24:20;6.60;99.90
11089;DHT22;5598;48.648;8.908;2023-04-01T06:26:57;6.60;99.90
11089;DHT22;5598;48.648;8.908;2023-04-01T06:29:47;6.60;99.90
11089;DHT22;5598;48.648;8.908;2023-04-01T06:32:27;6.60;99.90
11089;DHT22;5598;48.648;8.908;2023-04-01T06:35:13;6.70;99.90
11089;DHT22;5598;48.648;8.908;2023-04-01T06:38:05;6.60;99.90
11089;DHT22;5598;48.648;8.908;2023-04-01T06:40:51;6.60;99.90
11089;DHT22;5598;48.648;8.908;2023-04-01T06:43:27;6.60;99.90
11089;DHT22;5598;48.648;8.908;2023-04-01T06:46:05;6.60;99.90
11089;DHT22;5598;48.648;8.908;2023-04-01T06:48:44;6.60;99.90
11089;DHT22;5598;48.648;8.908;2023-04-01T06:51:25;6.60;99.90
11089;DHT22;5598;48.648;8.908;2023-04-01T06:53:56;6.60;99.90
11089;DHT22;5598;48.648;8.908;2023-04-01T06:56:29;6.60;99.90
11089;DHT22;5598;48.648;8.908;2023-04-01T06:58:58;6.70;99.90
11089;DHT22;5598;48.648;8.908;2023-04-01T07:01:31;6.70;99.90
11089;DHT22;5598;48.648;8.908;2023-04-01T07:04:03;6.70;99.90
11089;DHT22;5598;48.648;8.908;2023-04-01T07:06:35;6.70;99.90
11089;DHT22;5598;48.648;8.908;2023-04-01T07:09:08;6.80;99.90
11089;DHT22;5598;48.648;8.908;2023-04-01T07:11:38;6.80;99.90
11089;DHT22;5598;48.648;8.908;2023-04-01T07:14:13;6.80;99.90
11089;DHT22;5598;48.648;8.908;2023-04-01T07:16:44;6.80;99.90
11089;DHT22;5598;48.648;8.908;2023-04-01T07:19:18;6.80;99.90
11089;DHT22;5598;48.648;8.908;2023-04-01T07:21:49;6.80;99.90
11089;DHT22;5598;48.648;8.908;2023-04-01T07:24:21;6.80;99.90
11089;DHT22;5598;48.648;8.908;2023-04-01T07:26:53;6.80;99.90
11089;DHT22;5598;48.648;8.908;2023-04-01T07:29:20;6.80;99.90
11089;DHT22;5598;48.648;8.908;2023-04-01T07:32:22;6.90;99.90
11089;DHT22;5598;48.648;8.908;2023-04-01T07:35:00;6.90;99.90
11089;DHT22;5598;48.648;8.908;2023-04-01T07:37:34;7.00;99.90
11089;DHT22;5598;48.648;8.908;2023-04-01T07:40:15;7.00;99.90
11089;DHT22;5598;48.648;8.908;2023-04-01T07:42:57;7.00;99.90
11089;DHT22;5598;48.648;8.908;2023-04-01T07:45:31;7.00;99.90
11089;DHT22;5598;48.648;8.908;2023-04-01T07:48:14;7.00;99.90
11089;DHT22;5598;48.648;8.908;2023-04-01T07:50:49;7.00;99.90
11089;DHT22;5598;48.648;8.908;2023-04-01T07:53:21;7.00;99.90
11089;DHT22;5598;48.648;8.908;2023-04-01T07:55:53;7.10;99.90
11089;DHT22;5598;48.648;8.908;2023-04-01T07:58:30;7.00;99.90
11089;DHT22;5598;48.648;8.908;2023-04-01T08:01:04;7.10;99.90
11089;DHT22;5598;48.648;8.908;2023-04-01T08:03:41;7.10;99.90
11089;DHT22;5598;48.648;8.908;2023-04-01T08:06:18;7.00;99.90
11089;DHT22;5598;48.648;8.908;2023-04-01T08:08:58;7.00;99.90
11089;DHT22;5598;48.648;8.908;2023-04-01T08:11:41;7.00;99.90
11089;DHT22;5598;48.648;8.908;2023-04-01T08:14:17;7.00;99.90
11089;DHT22;5598;48.648;8.908;2023-04-01T08:16:51;7.00;99.90
11089;DHT22;5598;48.648;8.908;2023-04-01T08:19:31;7.00;99.90
11089;DHT22;5598;48.648;8.908;2023-04-01T08:22:09;7.00;99.90
11089;DHT22;5598;48.648;8.908;2023-04-01T08:24:41;7.00;99.90
11089;DHT22;5598;48.648;8.908;2023-04-01T08:27:13;7.00;99.90
11089;DHT22;5598;48.648;8.908;2023-04-01T08:29:50;7.00;99.90
11089;DHT22;5598;48.648;8.908;2023-04-01T08:32:21;7.00;99.90
11089;DHT22;5598;48.648;8.908;2023-04-01T08:34:56;7.00;99.90
11089;DHT22;5598;48.648;8.908;2023-04-01T08:37:28;7.00;99.90
11089;DHT22;5598;48.648;8.908;2023-04-01T08:39:58;7.00;99.90
11089;DHT22;5598;48.648;8.908;2023-04-01T08:42:41;7.00;99.90
11089;DHT22;5598;48.648;8.908;2023-04-01T08:45:26;6.90;99.90
11089;DHT22;5598;48.648;8.908;2023-04-01T08:51:18;6.90;99.90
11089;DHT22;5598;48.648;8.908;2023-04-01T08:54:07;7.00;99.90
11089;DHT22;5598;48.648;8.908;2023-04-01T08:56:41;7.10;99.90
11089;DHT22;5598;48.648;8.908;2023-04-01T08:59:22;7.20;99.90
11089;DHT22;5598;48.648;8.908;2023-04-01T09:02:35;7.20;99.90
11089;DHT22;5598;48.648;8.908;2023-04-01T09:05:26;7.40;99.90
11089;DHT22;5598;48.648;8.908;2023-04-01T09:08:02;7.50;99.90
11089;DHT22;5598;48.648;8.908;2023-04-01T09:10:54;7.60;99.90
11089;DHT22;5598;48.648;8.908;2023-04-01T09:13:43;7.60;99.90
11089;DHT22;5598;48.648;8.908;2023-04-01T09:16:27;7.50;99.90
11089;DHT22;5598;48.648;8.908;2023-04-01T09:19:17;7.50;99.90
11089;DHT22;5598;48.648;8.908;2023-04-01T09:21:59;7.50;99.90
11089;DHT22;5598;48.648;8.908;2023-04-01T09:24:40;7.50;99.90
11089;DHT22;5598;48.648;8.908;2023-04-01T09:27:14;7.50;99.90
11089;DHT22;5598;48.648;8.908;2023-04-01T09:30:07;7.60;99.90
11089;DHT22;5598;48.648;8.908;2023-04-01T09:35:45;7.60;99.90
11089;DHT22;5598;48.648;8.908;2023-04-01T09:38:21;7.60;99.90
11089;DHT22;5598;48.648;8.908;2023-04-01T09:40:54;7.60;99.90
11089;DHT22;5598;48.648;8.908;2023-04-01T09:43:26;7.50;99.90
11089;DHT22;5598;48.648;8.908;2023-04-01T09:46:04;7.50;99.90
11089;DHT22;5598;48.648;8.908;2023-04-01T09:48:48;7.60;99.90
11089;DHT22;5598;48.648;8.908;2023-04-01T09:51:31;7.50;99.90
11089;DHT22;5598;48.648;8.908;2023-04-01T09:54:11;7.50;99.90
11089;DHT22;5598;48.648;8.908;2023-04-01T09:57:14;7.40;99.90
11089;DHT22;5598;48.648;8.908;2023-04-01T10:00:10;7.40;99.90
11089;DHT22;5598;48.648;8.908;2023-04-01T10:18:16;7.60;99.90
11089;DHT22;5598;48.648;8.908;2023-04-01T10:21:09;7.70;99.90
11089;DHT22;5598;48.648;8.908;2023-04-01T10:23:59;7.80;99.90
11089;DHT22;5598;48.648;8.908;2023-04-01T10:27:06;7.90;99.90
11089;DHT22;5598;48.648;8.908;2023-04-01T10:29:59;7.90;99.90
11089;DHT22;5598;48.648;8.908;2023-04-01T10:32:58;8.00;99.90
11089;DHT22;5598;48.648;8.908;2023-04-01T10:35:53;8.10;99.90
11089;DHT22;5598;48.648;8.908;2023-04-01T10:38:51;8.20;99.90
11089;DHT22;5598;48.648;8.908;2023-04-01T10:41:40;8.30;99.90
11089;DHT22;5598;48.648;8.908;2023-04-01T10:44:32;8.60;99.90
11089;DHT22;5598;48.648;8.908;2023-04-01T10:50:47;8.40;99.90
11089;DHT22;5598;48.648;8.908;2023-04-01T10:53:33;8.40;99.90
11089;DHT22;5598;48.648;8.908;2023-04-01T11:05:51;8.50;99.90
11089;DHT22;5598;48.648;8.908;2023-04-01T11:08:43;8.50;99.90
11089;DHT22;5598;48.648;8.908;2023-04-01T11:11:36;8.50;99.90
11089;DHT22;5598;48.648;8.908;2023-04-01T11:17:34;8.50;99.90
11089;DHT22;5598;48.648;8.908;2023-04-01T11:20:25;8.50;99.90
11089;DHT22;5598;48.648;8.908;2023-04-01T11:23:10;8.50;99.90
11089;DHT22;5598;48.648;8.908;2023-04-01T11:26:12;8.60;99.90
11089;DHT22;5598;48.648;8.908;2023-04-01T11:29:02;8.50;99.90
11089;DHT22;5598;48.648;8.908;2023-04-01T11:31:45;8.50;99.90
11089;DHT22;5598;48.648;8.908;2023-04-01T11:34:27;8.50;99.90
11089;DHT22;5598;48.648;8.908;2023-04-01T11:37:06;8.50;99.90
11089;DHT22;5598;48.648;8.908;2023-04-01T11:39:58;8.40;99.90
11089;DHT22;5598;48.648;8.908;2023-04-01T11:42:33;8.50;99.90
11089;DHT22;5598;48.648;8.908;2023-04-01T11:45:15;8.50;99.90
11089;DHT22;5598;48.648;8.908;2023-04-01T11:50:44;8.70;99.90
11089;DHT22;5598;48.648;8.908;2023-04-01T11:53:25;8.70;99.90
11089;DHT22;5598;48.648;8.908;2023-04-01T11:56:07;8.70;99.90
11089;DHT22;5598;48.648;8.908;2023-04-01T11:58:45;8.80;99.90
11089;DHT22;5598;48.648;8.908;2023-04-01T12:01:25;8.90;99.90
11089;DHT22;5598;48.648;8.908;2023-04-01T12:04:11;9.30;99.90
11089;DHT22;5598;48.648;8.908;2023-04-01T12:06:44;9.40;99.90
11089;DHT22;5598;48.648;8.908;2023-04-01T12:09:20;9.50;99.90
11089;DHT22;5598;48.648;8.908;2023-04-01T12:11:54;9.50;99.90
11089;DHT22;5598;48.648;8.908;2023-04-01T12:14:32;9.70;99.90
11089;DHT22;5598;48.648;8.908;2023-04-01T12:17:09;9.40;99.90
11089;DHT22;5598;48.648;8.908;2023-04-01T12:19:44;9.10;99.90
11089;DHT22;5598;48.648;8.908;2023-04-01T12:22:26;9.10;99.90
11089;DHT22;5598;48.648;8.908;2023-04-01T12:25:05;9.00;99.90
11089;DHT22;5598;48.648;8.908;2023-04-01T12:27:49;8.90;99.90
11089;DHT22;5598;48.648;8.908;2023-04-01T12:30:41;8.80;99.90
11089;DHT22;5598;48.648;8.908;2023-04-01T12:33:31;8.70;99.90
11089;DHT22;5598;48.648;8.908;2023-04-01T12:36:09;9.10;99.90
11089;DHT22;5598;48.648;8.908;2023-04-01T12:38:44;9.20;99.90
11089;DHT22;5598;48.648;8.908;2023-04-01T12:41:23;9.30;99.90
11089;DHT22;5598;48.648;8.908;2023-04-01T12:44:16;9.30;99.90
11089;DHT22;5598;48.648;8.908;2023-04-01T12:49:55;9.30;99.90
11089;DHT22;5598;48.648;8.908;2023-04-01T12:52:26;9.60;99.90
11089;DHT22;5598;48.648;8.908;2023-04-01T12:58:10;9.70;99.90
11089;DHT22;5598;48.648;8.908;2023-04-01T13:04:16;9.80;99.90
11089;DHT22;5598;48.648;8.908;2023-04-01T13:06:57;9.70;99.90
11089;DHT22;5598;48.648;8.908;2023-04-01T13:09:35;9.60;99.90
11089;DHT22;5598;48.648;8.908;2023-04-01T13:12:22;9.60;99.90
11089;DHT22;5598;48.648;8.908;2023-04-01T13:15:07;9.50;99.90
11089;DHT22;5598;48.648;8.908;2023-04-01T13:17:47;9.40;99.90
11089;DHT22;5598;48.648;8.908;2023-04-01T13:20:27;9.30;99.90
11089;DHT22;5598;48.648;8.908;2023-04-01T13:23:07;9.40;99.90
11089;DHT22;5598;48.648;8.908;2023-04-01T13:25:44;9.40;99.90
11089;DHT22;5598;48.648;8.908;2023-04-01T13:28:17;9.40;99.90
11089;DHT22;5598;48.648;8.908;2023-04-01T13:30:51;9.50;99.90
11089;DHT22;5598;48.648;8.908;2023-04-01T13:33:27;9.60;99.90
11089;DHT22;5598;48.648;8.908;2023-04-01T13:36:08;9.50;99.90
11089;DHT22;5598;48.648;8.908;2023-04-01T13:39:01;9.40;99.90
11089;DHT22;5598;48.648;8.908;2023-04-01T13:41:59;9.20;99.90
11089;DHT22;5598;48.648;8.908;2023-04-01T13:44:33;9.20;99.90
11089;DHT22;5598;48.648;8.908;2023-04-01T13:47:26;9.20;99.90
11089;DHT22;5598;48.648;8.908;2023-04-01T13:53:17;9.10;99.90
11089;DHT22;5598;48.648;8.908;2023-04-01T13:55:55;9.10;99.90
11089;DHT22;5598;48.648;8.908;2023-04-01T13:58:43;9.20;99.90
11089;DHT22;5598;48.648;8.908;2023-04-01T14:01:19;9.30;99.90
11089;DHT22;5598;48.648;8.908;2023-04-01T14:04:27;9.20;99.90
11089;DHT22;5598;48.648;8.908;2023-04-01T14:07:05;9.20;99.90
11089;DHT22;5598;48.648;8.908;2023-04-01T14:09:45;9.20;99.90
11089;DHT22;5598;48.648;8.908;2023-04-01T14:12:27;9.10;99.90
11089;DHT22;5598;48.648;8.908;2023-04-01T14:15:09;9.00;99.90
11089;DHT22;5598;48.648;8.908;2023-04-01T14:17:54;8.90;99.90
11089;DHT22;5598;48.648;8.908;2023-04-01T14:20:29;8.80;99.90
11089;DHT22;5598;48.648;8.908;2023-04-01T14:23:31;8.80;99.90
11089;DHT22;5598;48.648;8.908;2023-04-01T14:26:10;8.90;99.90
11089;DHT22;5598;48.648;8.908;2023-04-01T14:28:45;8.90;99.90
11089;DHT22;5598;48.648;8.908;2023-04-01T14:31:25;8.90;99.90
11089;DHT22;5598;48.648;8.908;2023-04-01T14:34:00;9.00;99.90
11089;DHT22;5598;48.648;8.908;2023-04-01T14:36:41;9.00;99.90
11089;DHT22;5598;48.648;8.908;2023-04-01T14:42:31;9.00;99.90
11089;DHT22;5598;48.648;8.908;2023-04-01T14:45:18;8.90;99.90
11089;DHT22;5598;48.648;8.908;2023-04-01T14:47:50;8.90;99.90
11089;DHT22;5598;48.648;8.908;2023-04-01T14:50:22;8.90;99.90
11089;DHT22;5598;48.648;8.908;2023-04-01T14:52:57;8.90;99.90
11089;DHT22;5598;48.648;8.908;2023-04-01T14:55:31;9.00;99.90
11089;DHT22;5598;48.648;8.908;2023-04-01T14:58:08;9.00;99.90
11089;DHT22;5598;48.648;8.908;2023-04-01T15:00:48;9.00;99.90
11089;DHT22;5598;48.648;8.908;2023-04-01T15:03:22;9.10;99.90
11089;DHT22;5598;48.648;8.908;2023-04-01T15:05:56;9.10;99.90
11089;DHT22;5598;48.648;8.908;2023-04-01T15:08:29;9.00;99.90
11089;DHT22;5598;48.648;8.908;2023-04-01T15:11:17;9.10;99.90
11089;DHT22;5598;48.648;8.908;2023-04-01T15:14:10;9.20;99.90
11089;DHT22;5598;48.648;8.908;2023-04-01T15:16:47;9.30;99.90
11089;DHT22;5598;48.648;8.908;2023-04-01T15:19:23;9.40;99.90
11089;DHT22;5598;48.648;8.908;2023-04-01T15:22:09;9.40;99.90
11089;DHT22;5598;48.648;8.908;2023-04-01T15:24:46;9.50;99.90
11089;DHT22;5598;48.648;8.908;2023-04-01T15:27:22;9.40;99.90
11089;DHT22;5598;48.648;8.908;2023-04-01T15:30:15;9.30;99.90
11089;DHT22;5598;48.648;8.908;2023-04-01T15:32:52;9.30;99.90
11089;DHT22;5598;48.648;8.908;2023-04-01T15:35:34;9.20;99.90
11089;DHT22;5598;48.648;8.908;2023-04-01T15:38:08;9.00;99.90
11089;DHT22;5598;48.648;8.908;2023-04-01T15:40:42;8.90;99.90
11089;DHT22;5598;48.648;8.908;2023-04-01T15:43:18;8.90;99.90
11089;DHT22;5598;48.648;8.908;2023-04-01T15:45:57;8.80;99.90
11089;DHT22;5598;48.648;8.908;2023-04-01T15:48:46;8.80;99.90
11089;DHT22;5598;48.648;8.908;2023-04-01T15:51:24;8.70;99.90
11089;DHT22;5598;48.648;8.908;2023-04-01T15:54:08;8.60;99.90
11089;DHT22;5598;48.648;8.908;2023-04-01T15:56:49;8.60;99.90
11089;DHT22;5598;48.648;8.908;2023-04-01T15:59:32;8.50;99.90
11089;DHT22;5598;48.648;8.908;2023-04-01T16:02:17;8.50;99.90
11089;DHT22;5598;48.648;8.908;2023-04-01T16:04:55;8.50;99.90
11089;DHT22;5598;48.648;8.908;2023-04-01T16:07:53;8.50;99.90
11089;DHT22;5598;48.648;8.908;2023-04-01T16:10:33;8.50;99.90
11089;DHT22;5598;48.648;8.908;2023-04-01T16:13:23;8.50;99.90
11089;DHT22;5598;48.648;8.908;2023-04-01T16:15:57;8.60;99.90
11089;DHT22;5598;48.648;8.908;2023-04-01T16:18:52;8.60;99.90
11089;DHT22;5598;48.648;8.908;2023-04-01T16:21:36;8.70;99.90
11089;DHT22;5598;48.648;8.908;2023-04-01T16:24:13;8.70;99.90
11089;DHT22;5598;48.648;8.908;2023-04-01T16:26:47;8.70;99.90
11089;DHT22;5598;48.648;8.908;2023-04-01T16:29:24;8.70;99.90
11089;DHT22;5598;48.648;8.908;2023-04-01T16:31:58;8.70;99.90
11089;DHT22;5598;48.648;8.908;2023-04-01T16:34:35;8.70;99.90
11089;DHT22;5598;48.648;8.908;2023-04-01T16:37:05;8.70;99.90
11089;DHT22;5598;48.648;8.908;2023-04-01T16:39:37;8.70;99.90
11089;DHT22;5598;48.648;8.908;2023-04-01T16:42:22;8.70;99.90
11089;DHT22;5598;48.648;8.908;2023-04-01T16:44:55;8.70;99.90
11089;DHT22;5598;48.648;8.908;2023-04-01T16:47:27;8.70;99.90
11089;DHT22;5598;48.648;8.908;2023-04-01T16:50:00;8.70;99.90
11089;DHT22;5598;48.648;8.908;2023-04-01T16:52:43;8.60;99.90
11089;DHT22;5598;48.648;8.908;2023-04-01T16:55:15;8.60;99.90
11089;DHT22;5598;48.648;8.908;2023-04-01T16:57:48;8.50;99.90
11089;DHT22;5598;48.648;8.908;2023-04-01T17:00:23;8.50;99.90
11089;DHT22;5598;48.648;8.908;2023-04-01T17:03:01;8.40;99.90
11089;DHT22;5598;48.648;8.908;2023-04-01T17:05:43;8.40;99.90
11089;DHT22;5598;48.648;8.908;2023-04-01T17:08:21;8.40;99.90
11089;DHT22;5598;48.648;8.908;2023-04-01T17:10:52;8.40;99.90
11089;DHT22;5598;48.648;8.908;2023-04-01T17:13:38;8.40;99.90
11089;DHT22;5598;48.648;8.908;2023-04-01T17:16:42;8.40;99.90
11089;DHT22;5598;48.648;8.908;2023-04-01T17:19:23;8.40;99.90
11089;DHT22;5598;48.648;8.908;2023-04-01T17:22:06;8.40;99.90
11089;DHT22;5598;48.648;8.908;2023-04-01T17:24:53;8.50;99.90
11089;DHT22;5598;48.648;8.908;2023-04-01T17:27:35;8.50;99.90
11089;DHT22;5598;48.648;8.908;2023-04-01T17:30:22;8.50;99.90
11089;DHT22;5598;48.648;8.908;2023-04-01T17:33:07;8.50;99.90
11089;DHT22;5598;48.648;8.908;2023-04-01T17:35:40;8.50;99.90
11089;DHT22;5598;48.648;8.908;2023-04-01T17:38:18;8.50;99.90
11089;DHT22;5598;48.648;8.908;2023-04-01T17:40:56;8.50;99.90
11089;DHT22;5598;48.648;8.908;2023-04-01T17:43:32;8.50;99.90
11089;DHT22;5598;48.648;8.908;2023-04-01T17:46:10;8.50;99.90
11089;DHT22;5598;48.648;8.908;2023-04-01T17:48:51;8.50;99.90
11089;DHT22;5598;48.648;8.908;2023-04-01T17:51:24;8.50;99.90
11089;DHT22;5598;48.648;8.908;2023-04-01T17:54:05;8.40;99.90
11089;DHT22;5598;48.648;8.908;2023-04-01T17:56:45;8.40;99.90
11089;DHT22;5598;48.648;8.908;2023-04-01T17:59:22;8.30;99.90
11089;DHT22;5598;48.648;8.908;2023-04-01T18:02:00;8.20;99.90
11089;DHT22;5598;48.648;8.908;2023-04-01T18:05:05;8.10;99.90
11089;DHT22;5598;48.648;8.908;2023-04-01T18:08:02;8.10;99.90